sensor_id;sensor_type;location;lat;lon;timestamp;temperature;humidity
14771;DHT22;7477;45.222;5.688;2023-06-22T00:03:06;24.40;98.60
14771;DHT22;7477;45.222;5.688;2023-06-22T00:06:26;24.40;98.80
14771;DHT22;7477;45.222;5.688;2023-06-22T00:09:45;24.50;98.70
14771;DHT22;7477;45.222;5.688;2023-06-22T00:13:06;24.50;98.60
14771;DHT22;7477;45.222;5.688;2023-06-22T00:16:26;24.40;98.60
14771;DHT22;7477;45.222;5.688;2023-06-22T00:19:47;24.50;98.60
14771;DHT22;7477;45.222;5.688;2023-06-22T00:23:07;24.40;98.70
14771;DHT22;7477;45.222;5.688;2023-06-22T00:26:29;24.40;98.80
14771;DHT22;7477;45.222;5.688;2023-06-22T00:29:48;24.40;98.80
14771;DHT22;7477;45.222;5.688;2023-06-22T00:33:07;24.40;98.80
14771;DHT22;7477;45.222;5.688;2023-06-22T00:36:27;24.30;98.90
14771;DHT22;7477;45.222;5.688;2023-06-22T00:39:46;24.30;99.00
14771;DHT22;7477;45.222;5.688;2023-06-22T00:43:06;24.20;99.00
14771;DHT22;7477;45.222;5.688;2023-06-22T00:46:25;24.20;99.00
14771;DHT22;7477;45.222;5.688;2023-06-22T00:49:45;24.20;99.10
14771;DHT22;7477;45.222;5.688;2023-06-22T00:53:08;24.20;99.00
14771;DHT22;7477;45.222;5.688;2023-06-22T00:56:27;24.10;99.20
14771;DHT22;7477;45.222;5.688;2023-06-22T00:59:50;24.20;99.00
14771;DHT22;7477;45.222;5.688;2023-06-22T01:03:10;24.10;99.00
14771;DHT22;7477;45.222;5.688;2023-06-22T01:06:37;24.10;99.20
14771;DHT22;7477;45.222;5.688;2023-06-22T01:10:33;24.10;99.20
14771;DHT22;7477;45.222;5.688;2023-06-22T01:17:23;24.00;99.20
14771;DHT22;7477;45.222;5.688;2023-06-22T01:20:44;25.40;99.80
14771;DHT22;7477;45.222;5.688;2023-06-22T01:31:24;24.00;99.50
14771;DHT22;7477;45.222;5.688;2023-06-22T01:34:45;23.90;99.70
14771;DHT22;7477;45.222;5.688;2023-06-22T01:38:06;23.90;99.60
14771;DHT22;7477;45.222;5.688;2023-06-22T01:41:27;24.00;99.30
14771;DHT22;7477;45.222;5.688;2023-06-22T01:44:48;24.10;99.10
14771;DHT22;7477;45.222;5.688;2023-06-22T01:48:08;24.00;99.00
14771;DHT22;7477;45.222;5.688;2023-06-22T01:51:27;24.00;98.90
14771;DHT22;7477;45.222;5.688;2023-06-22T01:54:47;23.90;98.90
14771;DHT22;7477;45.222;5.688;2023-06-22T01:58:07;23.80;98.90
14771;DHT22;7477;45.222;5.688;2023-06-22T02:01:44;23.80;99.00
14771;DHT22;7477;45.222;5.688;2023-06-22T02:05:07;23.70;99.10
14771;DHT22;7477;45.222;5.688;2023-06-22T02:08:33;23.80;99.20
14771;DHT22;7477;45.222;5.688;2023-06-22T02:11:54;23.60;99.30
14771;DHT22;7477;45.222;5.688;2023-06-22T02:15:15;23.60;99.60
14771;DHT22;7477;45.222;5.688;2023-06-22T02:18:35;23.60;99.50
14771;DHT22;7477;45.222;5.688;2023-06-22T02:21:55;23.50;99.50
14771;DHT22;7477;45.222;5.688;2023-06-22T02:25:14;23.50;99.70
14771;DHT22;7477;45.222;5.688;2023-06-22T02:28:34;23.40;99.90
14771;DHT22;7477;45.222;5.688;2023-06-22T02:31:54;23.40;99.80
14771;DHT22;7477;45.222;5.688;2023-06-22T02:35:14;23.40;99.70
14771;DHT22;7477;45.222;5.688;2023-06-22T02:38:33;23.30;99.80
14771;DHT22;7477;45.222;5.688;2023-06-22T02:41:54;23.30;99.90
14771;DHT22;7477;45.222;5.688;2023-06-22T02:45:13;23.20;99.90
14771;DHT22;7477;45.222;5.688;2023-06-22T02:48:33;23.10;99.90
14771;DHT22;7477;45.222;5.688;2023-06-22T02:51:53;23.10;99.90
14771;DHT22;7477;45.222;5.688;2023-06-22T02:55:13;23.10;99.90
14771;DHT22;7477;45.222;5.688;2023-06-22T02:58:32;23.10;99.90
14771;DHT22;7477;45.222;5.688;2023-06-22T03:01:58;23.10;99.90
14771;DHT22;7477;45.222;5.688;2023-06-22T03:05:17;23.10;99.90
14771;DHT22;7477;45.222;5.688;2023-06-22T03:08:37;23.10;99.90
14771;DHT22;7477;45.222;5.688;2023-06-22T03:11:56;23.10;99.90
14771;DHT22;7477;45.222;5.688;2023-06-22T03:15:16;23.10;99.90
14771;DHT22;7477;45.222;5.688;2023-06-22T03:18:35;23.10;99.90
14771;DHT22;7477;45.222;5.688;2023-06-22T03:21:54;23.10;99.90
14771;DHT22;7477;45.222;5.688;2023-06-22T03:25:14;23.10;99.60
14771;DHT22;7477;45.222;5.688;2023-06-22T03:28:34;23.00;99.90
14771;DHT22;7477;45.222;5.688;2023-06-22T03:31:53;23.00;99.80
14771;DHT22;7477;45.222;5.688;2023-06-22T03:35:13;23.10;99.60
14771;DHT22;7477;45.222;5.688;2023-06-22T03:38:33;23.10;99.40
14771;DHT22;7477;45.222;5.688;2023-06-22T03:41:52;23.00;99.30
14771;DHT22;7477;45.222;5.688;2023-06-22T03:45:12;23.00;99.40
14771;DHT22;7477;45.222;5.688;2023-06-22T03:48:31;23.00;99.60
14771;DHT22;7477;45.222;5.688;2023-06-22T03:51:50;23.00;99.70
14771;DHT22;7477;45.222;5.688;2023-06-22T03:55:09;23.10;99.90
14771;DHT22;7477;45.222;5.688;2023-06-22T03:58:28;23.10;99.90
14771;DHT22;7477;45.222;5.688;2023-06-22T04:01:51;23.10;99.80
14771;DHT22;7477;45.222;5.688;2023-06-22T04:05:11;23.30;99.90
14771;DHT22;7477;45.222;5.688;2023-06-22T04:08:30;23.20;99.90
14771;DHT22;7477;45.222;5.688;2023-06-22T04:11:49;23.20;99.90
14771;DHT22;7477;45.222;5.688;2023-06-22T04:15:09;23.10;99.90
14771;DHT22;7477;45.222;5.688;2023-06-22T04:18:28;23.10;99.90
14771;DHT22;7477;45.222;5.688;2023-06-22T04:21:47;23.10;99.90
14771;DHT22;7477;45.222;5.688;2023-06-22T04:25:08;23.00;99.90
14771;DHT22;7477;45.222;5.688;2023-06-22T04:28:27;23.00;99.90
14771;DHT22;7477;45.222;5.688;2023-06-22T04:31:47;23.00;99.90
14771;DHT22;7477;45.222;5.688;2023-06-22T04:35:09;23.00;99.90
14771;DHT22;7477;45.222;5.688;2023-06-22T04:38:29;23.00;99.90
14771;DHT22;7477;45.222;5.688;2023-06-22T04:41:52;23.00;99.90
14771;DHT22;7477;45.222;5.688;2023-06-22T04:45:11;23.00;99.90
14771;DHT22;7477;45.222;5.688;2023-06-22T04:48:32;22.90;99.90
14771;DHT22;7477;45.222;5.688;2023-06-22T04:51:51;23.00;99.90
14771;DHT22;7477;45.222;5.688;2023-06-22T04:55:14;23.00;99.90
14771;DHT22;7477;45.222;5.688;2023-06-22T04:58:37;22.80;99.90
14771;DHT22;7477;45.222;5.688;2023-06-22T05:02:01;22.80;99.90
14771;DHT22;7477;45.222;5.688;2023-06-22T05:05:21;22.80;99.90
14771;DHT22;7477;45.222;5.688;2023-06-22T05:08:40;23.10;99.90
14771;DHT22;7477;45.222;5.688;2023-06-22T05:12:00;23.10;99.90
14771;DHT22;7477;45.222;5.688;2023-06-22T05:15:21;23.00;99.90
14771;DHT22;7477;45.222;5.688;2023-06-22T05:18:45;23.10;99.90
14771;DHT22;7477;45.222;5.688;2023-06-22T05:22:05;23.10;99.90
14771;DHT22;7477;45.222;5.688;2023-06-22T05:25:25;23.20;99.90
14771;DHT22;7477;45.222;5.688;2023-06-22T05:28:46;23.20;99.90
14771;DHT22;7477;45.222;5.688;2023-06-22T05:32:06;23.30;99.90
14771;DHT22;7477;45.222;5.688;2023-06-22T05:35:25;23.20;99.90
14771;DHT22;7477;45.222;5.688;2023-06-22T05:38:45;23.20;99.90
14771;DHT22;7477;45.222;5.688;2023-06-22T05:42:05;23.20;99.90
14771;DHT22;7477;45.222;5.688;2023-06-22T05:45:25;23.10;99.90
14771;DHT22;7477;45.222;5.688;2023-06-22T05:48:45;23.10;99.90
14771;DHT22;7477;45.222;5.688;2023-06-22T05:52:04;23.10;99.90
14771;DHT22;7477;45.222;5.688;2023-06-22T05:55:24;23.00;99.90
14771;DHT22;7477;45.222;5.688;2023-06-22T05:58:43;23.00;99.90
14771;DHT22;7477;45.222;5.688;2023-06-22T06:02:02;23.00;99.90
14771;DHT22;7477;45.222;5.688;2023-06-22T06:05:22;23.00;99.90
14771;DHT22;7477;45.222;5.688;2023-06-22T06:08:45;23.10;99.90
14771;DHT22;7477;45.222;5.688;2023-06-22T06:12:04;23.00;99.90
14771;DHT22;7477;45.222;5.688;2023-06-22T06:15:24;23.10;99.90
14771;DHT22;7477;45.222;5.688;2023-06-22T06:18:43;23.20;99.90
14771;DHT22;7477;45.222;5.688;2023-06-22T06:22:03;23.40;99.90
14771;DHT22;7477;45.222;5.688;2023-06-22T06:25:23;23.50;99.90
14771;DHT22;7477;45.222;5.688;2023-06-22T06:28:43;23.40;99.90
14771;DHT22;7477;45.222;5.688;2023-06-22T06:32:02;23.40;99.90
14771;DHT22;7477;45.222;5.688;2023-06-22T06:35:22;23.40;99.90
14771;DHT22;7477;45.222;5.688;2023-06-22T06:38:41;23.40;99.90
14771;DHT22;7477;45.222;5.688;2023-06-22T06:42:01;23.60;99.90
14771;DHT22;7477;45.222;5.688;2023-06-22T06:45:22;24.00;99.90
14771;DHT22;7477;45.222;5.688;2023-06-22T06:48:42;24.00;99.90
14771;DHT22;7477;45.222;5.688;2023-06-22T06:52:01;23.70;99.90
14771;DHT22;7477;45.222;5.688;2023-06-22T06:55:21;24.00;99.90
14771;DHT22;7477;45.222;5.688;2023-06-22T06:58:43;23.80;99.90
14771;DHT22;7477;45.222;5.688;2023-06-22T07:02:04;23.80;99.90
14771;DHT22;7477;45.222;5.688;2023-06-22T07:05:24;23.80;99.90
14771;DHT22;7477;45.222;5.688;2023-06-22T07:08:43;23.70;99.90
14771;DHT22;7477;45.222;5.688;2023-06-22T07:12:02;23.70;99.90
14771;DHT22;7477;45.222;5.688;2023-06-22T07:15:22;23.80;99.90
14771;DHT22;7477;45.222;5.688;2023-06-22T07:18:41;23.80;99.80
14771;DHT22;7477;45.222;5.688;2023-06-22T07:22:00;23.80;99.60
14771;DHT22;7477;45.222;5.688;2023-06-22T07:25:20;24.10;99.90
14771;DHT22;7477;45.222;5.688;2023-06-22T07:28:39;25.10;96.60
14771;DHT22;7477;45.222;5.688;2023-06-22T07:31:59;25.30;93.90
14771;DHT22;7477;45.222;5.688;2023-06-22T07:35:20;25.20;93.90
14771;DHT22;7477;45.222;5.688;2023-06-22T07:38:39;25.20;93.30
14771;DHT22;7477;45.222;5.688;2023-06-22T07:41:58;25.40;91.20
14771;DHT22;7477;45.222;5.688;2023-06-22T07:45:17;25.30;91.30
14771;DHT22;7477;45.222;5.688;2023-06-22T07:48:38;25.40;90.70
14771;DHT22;7477;45.222;5.688;2023-06-22T07:51:58;25.30;90.90
14771;DHT22;7477;45.222;5.688;2023-06-22T07:55:17;25.30;90.70
14771;DHT22;7477;45.222;5.688;2023-06-22T07:58:36;25.40;90.00
14771;DHT22;7477;45.222;5.688;2023-06-22T08:01:55;25.30;90.40
14771;DHT22;7477;45.222;5.688;2023-06-22T08:05:15;25.40;90.20
14771;DHT22;7477;45.222;5.688;2023-06-22T08:08:37;25.40;89.80
14771;DHT22;7477;45.222;5.688;2023-06-22T08:11:57;25.40;90.00
14771;DHT22;7477;45.222;5.688;2023-06-22T08:15:17;25.30;90.20
14771;DHT22;7477;45.222;5.688;2023-06-22T08:18:37;25.10;90.60
14771;DHT22;7477;45.222;5.688;2023-06-22T08:21:56;25.00;91.00
14771;DHT22;7477;45.222;5.688;2023-06-22T08:25:16;25.20;90.60
14771;DHT22;7477;45.222;5.688;2023-06-22T08:28:35;25.20;90.40
14771;DHT22;7477;45.222;5.688;2023-06-22T08:31:55;25.10;90.30
14771;DHT22;7477;45.222;5.688;2023-06-22T08:35:14;25.10;90.20
14771;DHT22;7477;45.222;5.688;2023-06-22T08:38:34;25.30;89.50
14771;DHT22;7477;45.222;5.688;2023-06-22T08:41:53;25.30;88.40
14771;DHT22;7477;45.222;5.688;2023-06-22T08:45:12;25.30;88.40
14771;DHT22;7477;45.222;5.688;2023-06-22T08:48:32;24.90;88.00
14771;DHT22;7477;45.222;5.688;2023-06-22T08:51:51;24.80;87.90
14771;DHT22;7477;45.222;5.688;2023-06-22T08:55:12;24.80;90.90
14771;DHT22;7477;45.222;5.688;2023-06-22T08:58:31;24.70;91.50
14771;DHT22;7477;45.222;5.688;2023-06-22T09:01:51;24.60;92.20
14771;DHT22;7477;45.222;5.688;2023-06-22T09:05:10;24.60;92.10
14771;DHT22;7477;45.222;5.688;2023-06-22T09:08:29;24.70;92.80
14771;DHT22;7477;45.222;5.688;2023-06-22T09:11:48;24.60;93.50
14771;DHT22;7477;45.222;5.688;2023-06-22T09:15:08;24.60;94.10
14771;DHT22;7477;45.222;5.688;2023-06-22T09:18:27;24.60;95.10
14771;DHT22;7477;45.222;5.688;2023-06-22T09:21:46;24.70;96.60
14771;DHT22;7477;45.222;5.688;2023-06-22T09:25:06;24.70;95.50
14771;DHT22;7477;45.222;5.688;2023-06-22T09:28:26;24.60;98.00
14771;DHT22;7477;45.222;5.688;2023-06-22T09:31:45;24.50;98.70
14771;DHT22;7477;45.222;5.688;2023-06-22T09:35:05;24.50;98.00
14771;DHT22;7477;45.222;5.688;2023-06-22T09:38:26;24.50;97.10
14771;DHT22;7477;45.222;5.688;2023-06-22T09:41:45;24.70;98.70
14771;DHT22;7477;45.222;5.688;2023-06-22T09:45:05;24.60;99.10
14771;DHT22;7477;45.222;5.688;2023-06-22T09:48:24;24.50;99.20
14771;DHT22;7477;45.222;5.688;2023-06-22T09:51:43;24.50;98.80
14771;DHT22;7477;45.222;5.688;2023-06-22T09:55:03;24.60;99.90
14771;DHT22;7477;45.222;5.688;2023-06-22T09:58:22;24.70;99.90
14771;DHT22;7477;45.222;5.688;2023-06-22T10:01:41;24.80;99.90
14771;DHT22;7477;45.222;5.688;2023-06-22T10:05:01;24.80;99.90
14771;DHT22;7477;45.222;5.688;2023-06-22T10:08:20;24.90;99.90
14771;DHT22;7477;45.222;5.688;2023-06-22T10:11:39;24.90;99.90
14771;DHT22;7477;45.222;5.688;2023-06-22T10:14:58;24.90;99.90
14771;DHT22;7477;45.222;5.688;2023-06-22T10:18:18;24.90;99.90
14771;DHT22;7477;45.222;5.688;2023-06-22T10:21:37;24.80;99.90
14771;DHT22;7477;45.222;5.688;2023-06-22T10:24:56;24.80;99.90
14771;DHT22;7477;45.222;5.688;2023-06-22T10:28:15;24.80;99.90
14771;DHT22;7477;45.222;5.688;2023-06-22T10:31:34;24.80;99.90
14771;DHT22;7477;45.222;5.688;2023-06-22T10:34:54;24.80;99.90
14771;DHT22;7477;45.222;5.688;2023-06-22T10:38:13;24.80;99.90
14771;DHT22;7477;45.222;5.688;2023-06-22T10:41:33;24.80;99.90
14771;DHT22;7477;45.222;5.688;2023-06-22T10:44:52;24.80;99.70
14771;DHT22;7477;45.222;5.688;2023-06-22T10:48:11;24.80;99.80
14771;DHT22;7477;45.222;5.688;2023-06-22T10:51:30;24.80;99.70
14771;DHT22;7477;45.222;5.688;2023-06-22T10:54:51;24.80;99.80
14771;DHT22;7477;45.222;5.688;2023-06-22T10:58:11;24.80;99.90
14771;DHT22;7477;45.222;5.688;2023-06-22T11:01:30;24.90;99.60
14771;DHT22;7477;45.222;5.688;2023-06-22T11:04:53;24.90;99.90
14771;DHT22;7477;45.222;5.688;2023-06-22T11:08:12;25.10;99.90
14771;DHT22;7477;45.222;5.688;2023-06-22T11:11:31;25.10;99.60
14771;DHT22;7477;45.222;5.688;2023-06-22T11:14:51;25.10;99.10
14771;DHT22;7477;45.222;5.688;2023-06-22T11:18:10;25.10;98.90
14771;DHT22;7477;45.222;5.688;2023-06-22T11:21:30;25.10;99.00
14771;DHT22;7477;45.222;5.688;2023-06-22T11:24:49;25.10;99.00
14771;DHT22;7477;45.222;5.688;2023-06-22T11:28:08;25.20;98.40
14771;DHT22;7477;45.222;5.688;2023-06-22T11:31:28;25.20;97.60
14771;DHT22;7477;45.222;5.688;2023-06-22T11:34:47;25.20;97.50
14771;DHT22;7477;45.222;5.688;2023-06-22T11:38:06;25.30;97.20
14771;DHT22;7477;45.222;5.688;2023-06-22T11:41:27;25.30;97.00
14771;DHT22;7477;45.222;5.688;2023-06-22T11:44:46;25.30;96.40
14771;DHT22;7477;45.222;5.688;2023-06-22T11:48:05;25.30;96.80
14771;DHT22;7477;45.222;5.688;2023-06-22T11:51:25;25.20;97.00
14771;DHT22;7477;45.222;5.688;2023-06-22T11:54:44;25.20;97.10
14771;DHT22;7477;45.222;5.688;2023-06-22T11:58:03;25.20;96.90
14771;DHT22;7477;45.222;5.688;2023-06-22T12:01:22;25.20;96.50
14771;DHT22;7477;45.222;5.688;2023-06-22T12:04:42;25.20;96.60
14771;DHT22;7477;45.222;5.688;2023-06-22T12:08:01;25.30;96.10
14771;DHT22;7477;45.222;5.688;2023-06-22T12:11:20;25.40;96.20
14771;DHT22;7477;45.222;5.688;2023-06-22T12:14:39;25.30;96.00
14771;DHT22;7477;45.222;5.688;2023-06-22T12:17:58;25.40;95.70
14771;DHT22;7477;45.222;5.688;2023-06-22T12:21:17;25.40;95.40
14771;DHT22;7477;45.222;5.688;2023-06-22T12:24:37;25.40;95.50
14771;DHT22;7477;45.222;5.688;2023-06-22T12:27:56;25.40;95.50
14771;DHT22;7477;45.222;5.688;2023-06-22T12:31:15;25.40;95.50
14771;DHT22;7477;45.222;5.688;2023-06-22T12:34:34;25.40;95.40
14771;DHT22;7477;45.222;5.688;2023-06-22T12:37:53;25.50;95.60
14771;DHT22;7477;45.222;5.688;2023-06-22T12:41:13;25.50;94.80
14771;DHT22;7477;45.222;5.688;2023-06-22T12:44:32;25.80;94.90
14771;DHT22;7477;45.222;5.688;2023-06-22T12:47:51;25.70;95.10
14771;DHT22;7477;45.222;5.688;2023-06-22T12:51:10;25.50;95.30
14771;DHT22;7477;45.222;5.688;2023-06-22T12:54:29;25.50;95.30
14771;DHT22;7477;45.222;5.688;2023-06-22T12:57:49;25.50;95.30
14771;DHT22;7477;45.222;5.688;2023-06-22T13:01:08;25.70;94.70
14771;DHT22;7477;45.222;5.688;2023-06-22T13:04:27;26.00;93.90
14771;DHT22;7477;45.222;5.688;2023-06-22T13:07:46;26.00;93.80
14771;DHT22;7477;45.222;5.688;2023-06-22T13:11:05;26.00;94.00
14771;DHT22;7477;45.222;5.688;2023-06-22T13:14:24;26.10;94.30
14771;DHT22;7477;45.222;5.688;2023-06-22T13:17:43;26.10;94.10
14771;DHT22;7477;45.222;5.688;2023-06-22T13:21:03;26.20;94.10
14771;DHT22;7477;45.222;5.688;2023-06-22T13:24:23;26.20;94.30
14771;DHT22;7477;45.222;5.688;2023-06-22T13:27:42;26.20;94.70
14771;DHT22;7477;45.222;5.688;2023-06-22T13:31:01;26.30;94.50
14771;DHT22;7477;45.222;5.688;2023-06-22T13:34:20;26.40;94.30
14771;DHT22;7477;45.222;5.688;2023-06-22T13:37:39;26.40;94.50
14771;DHT22;7477;45.222;5.688;2023-06-22T13:40:58;26.30;94.60
14771;DHT22;7477;45.222;5.688;2023-06-22T13:44:18;26.10;94.70
14771;DHT22;7477;45.222;5.688;2023-06-22T13:47:40;25.80;94.40
14771;DHT22;7477;45.222;5.688;2023-06-22T13:50:59;25.40;90.70
14771;DHT22;7477;45.222;5.688;2023-06-22T13:54:18;25.30;91.90
14771;DHT22;7477;45.222;5.688;2023-06-22T13:57:38;25.20;91.20
14771;DHT22;7477;45.222;5.688;2023-06-22T14:00:57;24.30;90.10
14771;DHT22;7477;45.222;5.688;2023-06-22T14:04:16;23.10;94.50
14771;DHT22;7477;45.222;5.688;2023-06-22T14:07:35;20.10;99.90
14771;DHT22;7477;45.222;5.688;2023-06-22T14:10:54;19.70;99.90
14771;DHT22;7477;45.222;5.688;2023-06-22T14:14:14;21.30;99.90
14771;DHT22;7477;45.222;5.688;2023-06-22T14:17:33;20.70;99.90
14771;DHT22;7477;45.222;5.688;2023-06-22T14:20:53;20.10;99.90
14771;DHT22;7477;45.222;5.688;2023-06-22T14:24:12;19.30;99.90
14771;DHT22;7477;45.222;5.688;2023-06-22T14:27:31;19.80;99.90
14771;DHT22;7477;45.222;5.688;2023-06-22T14:30:50;20.10;99.90
14771;DHT22;7477;45.222;5.688;2023-06-22T14:34:09;19.30;99.90
14771;DHT22;7477;45.222;5.688;2023-06-22T14:37:28;19.60;99.90
14771;DHT22;7477;45.222;5.688;2023-06-22T14:40:47;19.80;99.90
14771;DHT22;7477;45.222;5.688;2023-06-22T14:44:06;20.10;99.90
14771;DHT22;7477;45.222;5.688;2023-06-22T14:47:26;20.10;99.90
14771;DHT22;7477;45.222;5.688;2023-06-22T14:50:45;20.00;99.90
14771;DHT22;7477;45.222;5.688;2023-06-22T14:54:04;20.10;99.90
14771;DHT22;7477;45.222;5.688;2023-06-22T14:57:24;20.10;99.90
14771;DHT22;7477;45.222;5.688;2023-06-22T15:00:43;19.80;99.90
14771;DHT22;7477;45.222;5.688;2023-06-22T15:04:02;19.20;99.90
14771;DHT22;7477;45.222;5.688;2023-06-22T15:07:21;20.20;99.90
14771;DHT22;7477;45.222;5.688;2023-06-22T15:10:40;20.70;99.90
14771;DHT22;7477;45.222;5.688;2023-06-22T15:14:00;20.80;99.90
14771;DHT22;7477;45.222;5.688;2023-06-22T15:17:19;21.10;99.90
14771;DHT22;7477;45.222;5.688;2023-06-22T15:20:38;20.30;99.90
14771;DHT22;7477;45.222;5.688;2023-06-22T15:23:58;20.00;99.90
14771;DHT22;7477;45.222;5.688;2023-06-22T15:27:17;20.00;99.90
14771;DHT22;7477;45.222;5.688;2023-06-22T15:30:36;20.10;99.90
14771;DHT22;7477;45.222;5.688;2023-06-22T15:33:55;19.90;99.90
14771;DHT22;7477;45.222;5.688;2023-06-22T15:37:14;20.30;99.90
14771;DHT22;7477;45.222;5.688;2023-06-22T15:40:36;20.70;99.90
14771;DHT22;7477;45.222;5.688;2023-06-22T15:43:55;20.50;99.90
14771;DHT22;7477;45.222;5.688;2023-06-22T15:47:14;20.60;99.90
14771;DHT22;7477;45.222;5.688;2023-06-22T15:50:33;21.40;99.90
14771;DHT22;7477;45.222;5.688;2023-06-22T15:53:52;20.00;99.90
14771;DHT22;7477;45.222;5.688;2023-06-22T15:57:12;20.50;99.90
14771;DHT22;7477;45.222;5.688;2023-06-22T16:00:31;22.80;99.90
14771;DHT22;7477;45.222;5.688;2023-06-22T16:03:51;23.30;99.90
14771;DHT22;7477;45.222;5.688;2023-06-22T16:07:10;23.60;99.90
14771;DHT22;7477;45.222;5.688;2023-06-22T16:10:32;23.50;99.90
14771;DHT22;7477;45.222;5.688;2023-06-22T16:13:52;23.20;99.90
14771;DHT22;7477;45.222;5.688;2023-06-22T16:17:11;23.30;99.90
14771;DHT22;7477;45.222;5.688;2023-06-22T16:20:30;22.80;99.90
14771;DHT22;7477;45.222;5.688;2023-06-22T16:23:50;23.10;99.90
14771;DHT22;7477;45.222;5.688;2023-06-22T16:27:09;22.90;99.90
14771;DHT22;7477;45.222;5.688;2023-06-22T16:30:27;22.80;99.90
14771;DHT22;7477;45.222;5.688;2023-06-22T16:33:47;22.70;99.90
14771;DHT22;7477;45.222;5.688;2023-06-22T16:37:08;23.00;99.90
14771;DHT22;7477;45.222;5.688;2023-06-22T16:40:28;23.50;99.90
14771;DHT22;7477;45.222;5.688;2023-06-22T16:43:48;23.30;99.90
14771;DHT22;7477;45.222;5.688;2023-06-22T16:47:07;23.50;99.90
14771;DHT22;7477;45.222;5.688;2023-06-22T16:50:27;23.90;99.90
14771;DHT22;7477;45.222;5.688;2023-06-22T16:53:55;24.10;99.90
14771;DHT22;7477;45.222;5.688;2023-06-22T16:57:18;24.10;99.90
14771;DHT22;7477;45.222;5.688;2023-06-22T17:00:39;24.00;99.90
14771;DHT22;7477;45.222;5.688;2023-06-22T17:04:04;23.80;99.90
14771;DHT22;7477;45.222;5.688;2023-06-22T17:07:26;23.90;99.90
14771;DHT22;7477;45.222;5.688;2023-06-22T17:10:46;23.40;99.90
14771;DHT22;7477;45.222;5.688;2023-06-22T17:14:06;22.90;99.90
14771;DHT22;7477;45.222;5.688;2023-06-22T17:17:25;22.70;99.90
14771;DHT22;7477;45.222;5.688;2023-06-22T17:20:47;23.10;99.90
14771;DHT22;7477;45.222;5.688;2023-06-22T17:24:06;23.00;99.90
14771;DHT22;7477;45.222;5.688;2023-06-22T17:27:28;22.60;99.90
14771;DHT22;7477;45.222;5.688;2023-06-22T17:31:08;22.60;99.90
14771;DHT22;7477;45.222;5.688;2023-06-22T17:34:29;23.00;99.90
14771;DHT22;7477;45.222;5.688;2023-06-22T17:37:54;22.90;99.90
14771;DHT22;7477;45.222;5.688;2023-06-22T17:41:13;22.90;99.90
14771;DHT22;7477;45.222;5.688;2023-06-22T17:44:32;22.90;99.90
14771;DHT22;7477;45.222;5.688;2023-06-22T17:47:53;22.70;99.90
14771;DHT22;7477;45.222;5.688;2023-06-22T17:51:14;22.50;99.90
14771;DHT22;7477;45.222;5.688;2023-06-22T17:54:34;22.50;99.90
14771;DHT22;7477;45.222;5.688;2023-06-22T17:57:58;23.00;99.90
14771;DHT22;7477;45.222;5.688;2023-06-22T18:01:37;22.30;99.90
14771;DHT22;7477;45.222;5.688;2023-06-22T18:04:57;21.60;99.90
14771;DHT22;7477;45.222;5.688;2023-06-22T18:08:25;22.30;99.90
14771;DHT22;7477;45.222;5.688;2023-06-22T18:11:48;22.60;99.90
14771;DHT22;7477;45.222;5.688;2023-06-22T18:15:08;22.20;99.90
14771;DHT22;7477;45.222;5.688;2023-06-22T18:18:29;22.00;99.90
14771;DHT22;7477;45.222;5.688;2023-06-22T18:21:50;22.30;99.90
14771;DHT22;7477;45.222;5.688;2023-06-22T18:25:10;23.10;99.90
14771;DHT22;7477;45.222;5.688;2023-06-22T18:28:30;23.60;99.90
14771;DHT22;7477;45.222;5.688;2023-06-22T18:32:08;23.70;99.90
14771;DHT22;7477;45.222;5.688;2023-06-22T18:35:28;23.70;99.90
14771;DHT22;7477;45.222;5.688;2023-06-22T18:38:48;23.60;99.90
14771;DHT22;7477;45.222;5.688;2023-06-22T18:42:09;23.50;99.90
14771;DHT22;7477;45.222;5.688;2023-06-22T18:45:29;23.50;99.90
14771;DHT22;7477;45.222;5.688;2023-06-22T18:48:51;22.70;99.90
14771;DHT22;7477;45.222;5.688;2023-06-22T18:55:32;22.10;99.90
14771;DHT22;7477;45.222;5.688;2023-06-22T18:59:01;22.20;99.90
14771;DHT22;7477;45.222;5.688;2023-06-22T19:02:44;21.90;99.90
14771;DHT22;7477;45.222;5.688;2023-06-22T19:06:07;21.40;99.90
14771;DHT22;7477;45.222;5.688;2023-06-22T19:09:26;21.40;99.90
14771;DHT22;7477;45.222;5.688;2023-06-22T19:12:46;21.10;99.90
14771;DHT22;7477;45.222;5.688;2023-06-22T19:16:06;20.40;99.90
14771;DHT22;7477;45.222;5.688;2023-06-22T19:19:25;20.20;99.90
14771;DHT22;7477;45.222;5.688;2023-06-22T19:22:52;20.10;99.90
14771;DHT22;7477;45.222;5.688;2023-06-22T19:26:14;20.00;99.90
14771;DHT22;7477;45.222;5.688;2023-06-22T19:29:34;19.90;99.90
14771;DHT22;7477;45.222;5.688;2023-06-22T19:32:56;19.90;99.90
14771;DHT22;7477;45.222;5.688;2023-06-22T19:36:20;19.80;99.90
14771;DHT22;7477;45.222;5.688;2023-06-22T19:39:40;19.80;99.90
14771;DHT22;7477;45.222;5.688;2023-06-22T19:42:59;19.70;99.90
14771;DHT22;7477;45.222;5.688;2023-06-22T19:46:28;19.70;99.90
14771;DHT22;7477;45.222;5.688;2023-06-22T19:49:48;19.70;99.90
14771;DHT22;7477;45.222;5.688;2023-06-22T19:53:16;19.80;99.90
14771;DHT22;7477;45.222;5.688;2023-06-22T19:56:36;19.70;99.90
14771;DHT22;7477;45.222;5.688;2023-06-22T19:59:56;19.70;99.90
14771;DHT22;7477;45.222;5.688;2023-06-22T20:03:16;19.70;99.90
14771;DHT22;7477;45.222;5.688;2023-06-22T20:06:36;19.70;99.90
14771;DHT22;7477;45.222;5.688;2023-06-22T20:10:14;19.60;99.90
14771;DHT22;7477;45.222;5.688;2023-06-22T20:13:33;19.60;99.90
14771;DHT22;7477;45.222;5.688;2023-06-22T20:16:52;19.50;99.90
14771;DHT22;7477;45.222;5.688;2023-06-22T20:20:21;19.40;99.90
14771;DHT22;7477;45.222;5.688;2023-06-22T20:23:41;19.40;99.90
14771;DHT22;7477;45.222;5.688;2023-06-22T20:27:01;19.30;99.90
14771;DHT22;7477;45.222;5.688;2023-06-22T20:30:21;19.40;99.90
14771;DHT22;7477;45.222;5.688;2023-06-22T20:33:41;19.30;99.90
14771;DHT22;7477;45.222;5.688;2023-06-22T20:37:01;19.30;99.90
14771;DHT22;7477;45.222;5.688;2023-06-22T20:40:25;19.30;99.90
14771;DHT22;7477;45.222;5.688;2023-06-22T20:43:52;19.20;99.90
14771;DHT22;7477;45.222;5.688;2023-06-22T20:47:12;19.20;99.90
14771;DHT22;7477;45.222;5.688;2023-06-22T20:50:31;19.20;99.90
14771;DHT22;7477;45.222;5.688;2023-06-22T20:53:51;19.30;99.90
14771;DHT22;7477;45.222;5.688;2023-06-22T20:57:11;19.30;99.90
14771;DHT22;7477;45.222;5.688;2023-06-22T21:00:30;19.20;99.90
14771;DHT22;7477;45.222;5.688;2023-06-22T21:03:53;19.20;99.90
14771;DHT22;7477;45.222;5.688;2023-06-22T21:07:13;19.10;99.90
14771;DHT22;7477;45.222;5.688;2023-06-22T21:10:32;19.10;99.90
14771;DHT22;7477;45.222;5.688;2023-06-22T21:13:51;19.10;99.90
14771;DHT22;7477;45.222;5.688;2023-06-22T21:17:10;19.10;99.90
14771;DHT22;7477;45.222;5.688;2023-06-22T21:20:30;19.10;99.90
14771;DHT22;7477;45.222;5.688;2023-06-22T21:23:49;19.10;99.90
14771;DHT22;7477;45.222;5.688;2023-06-22T21:27:08;19.10;99.90
14771;DHT22;7477;45.222;5.688;2023-06-22T21:30:27;19.10;99.90
14771;DHT22;7477;45.222;5.688;2023-06-22T21:33:46;19.10;99.90
14771;DHT22;7477;45.222;5.688;2023-06-22T21:37:05;19.00;99.90
14771;DHT22;7477;45.222;5.688;2023-06-22T21:40:24;19.10;99.90